Time;durP1;ratioP1;P1;durP2;ratioP2;P2;SDS_P1;SDS_P2;PMS_P1;PMS_P2;Temp;Humidity;BMP_temperature;BMP_pressure;BME280_temperature;BME280_humidity;BME280_pressure;Samples;Min_cycle;Max_cycle;Signal;HPM_P1;HPM_P2
2021/03/30 00:01:16;;;;;;;2.60;2.17;;;20.20;48.80;;;;;;4973903;28;20501;-70
2021/03/30 00:03:43;;;;;;;4.07;2.77;;;20.20;48.70;;;;;;4976356;28;20501;-70
2021/03/30 00:06:10;;;;;;;5.20;3.03;;;20.20;48.70;;;;;;4978804;28;20489;-70
2021/03/30 00:08:36;;;;;;;3.20;3.03;;;20.10;48.50;;;;;;4974573;28;20486;-69
2021/03/30 00:11:02;;;;;;;2.40;2.20;;;20.10;48.70;;;;;;4975700;28;20937;-70
2021/03/30 00:13:28;;;;;;;2.60;2.30;;;20.20;48.80;;;;;;4969019;28;20485;-70
2021/03/30 00:15:54;;;;;;;2.97;1.97;;;20.20;48.80;;;;;;4970503;28;20486;-70
2021/03/30 00:18:21;;;;;;;4.43;3.27;;;20.30;48.70;;;;;;4972350;28;20493;-70
2021/03/30 00:20:47;;;;;;;2.23;1.90;;;20.30;48.60;;;;;;4976037;28;20485;-70
2021/03/30 00:23:14;;;;;;;5.50;2.50;;;20.20;48.50;;;;;;4970631;28;20489;-70
2021/03/30 00:25:40;;;;;;;2.97;2.30;;;20.20;48.60;;;;;;4974197;28;20481;-69
2021/03/30 00:28:06;;;;;;;2.73;2.07;;;20.20;48.70;;;;;;4974642;28;20516;-69
2021/03/30 00:30:32;;;;;;;2.87;2.20;;;20.20;48.70;;;;;;4973607;28;20492;-69
2021/03/30 00:32:58;;;;;;;5.53;2.30;;;20.20;48.70;;;;;;4963883;28;20501;-70
2021/03/30 00:35:25;;;;;;;1.97;1.87;;;20.20;48.40;;;;;;4972224;28;20498;-69
2021/03/30 00:37:51;;;;;;;2.20;2.00;;;20.20;48.40;;;;;;4976686;28;20913;-69
2021/03/30 00:40:18;;;;;;;4.53;2.30;;;20.10;48.40;;;;;;4974989;28;21008;-69
2021/03/30 00:42:44;;;;;;;4.10;1.80;;;20.20;48.40;;;;;;4970724;28;20905;-70
2021/03/30 00:45:12;;;;;;;7.40;2.43;;;20.20;48.50;;;;;;4965535;28;20498;-70
2021/03/30 00:47:40;;;;;;;2.07;1.83;;;20.20;48.80;;;;;;4973473;28;20478;-70
2021/03/30 00:50:07;;;;;;;2.53;2.20;;;20.20;48.50;;;;;;4967285;28;20509;-69
2021/03/30 00:52:34;;;;;;;3.87;1.90;;;20.20;48.30;;;;;;4977471;28;20910;-68
2021/03/30 00:55:00;;;;;;;4.17;2.10;;;20.30;48.30;;;;;;4977182;28;20477;-70
2021/03/30 00:57:27;;;;;;;7.90;2.50;;;20.30;48.20;;;;;;4965407;28;20505;-70
2021/03/30 00:59:53;;;;;;;7.53;2.70;;;20.30;48.10;;;;;;4975031;28;20844;-69
2021/03/30 01:02:20;;;;;;;3.50;2.40;;;20.40;48.20;;;;;;4961133;28;20581;-70
2021/03/30 01:04:46;;;;;;;3.80;1.93;;;20.40;48.00;;;;;;4973843;28;20549;-69
2021/03/30 01:07:12;;;;;;;3.33;2.37;;;20.40;48.00;;;;;;4976058;28;20960;-69
2021/03/30 01:09:48;;;;;;;3.47;1.93;;;20.30;48.00;;;;;;4976467;28;21032;-69
2021/03/30 01:12:22;;;;;;;2.53;2.33;;;20.30;48.00;;;;;;4969801;28;20491;-70
2021/03/30 01:14:57;;;;;;;3.00;1.87;;;20.30;48.00;;;;;;4972409;28;20493;-69
2021/03/30 01:17:29;;;;;;;2.10;1.90;;;20.30;48.10;;;;;;4974163;28;20500;-69
2021/03/30 01:20:13;;;;;;;3.00;2.27;;;20.20;48.00;;;;;;4967595;28;20482;-69
2021/03/30 01:22:53;;;;;;;6.50;2.43;;;20.20;48.10;;;;;;4949235;28;20556;-69
2021/03/30 01:25:20;;;;;;;2.43;1.83;;;20.20;47.90;;;;;;4974663;28;20879;-70
2021/03/30 01:27:57;;;;;;;2.20;1.80;;;20.20;48.10;;;;;;4977145;28;20551;-71
2021/03/30 01:30:24;;;;;;;4.43;1.97;;;20.20;48.20;;;;;;4976873;28;20492;-70
2021/03/30 01:32:54;;;;;;;3.47;1.73;;;20.20;48.00;;;;;;4956582;28;20483;-70
2021/03/30 01:35:22;;;;;;;2.33;2.13;;;20.10;48.00;;;;;;4969311;28;20497;-69
2021/03/30 01:37:48;;;;;;;2.93;2.67;;;20.10;48.60;;;;;;4947260;28;20482;-69
2021/03/30 01:40:16;;;;;;;4.13;2.60;;;20.10;47.80;;;;;;4974480;28;20484;-70
2021/03/30 01:42:42;;;;;;;2.20;1.80;;;20.20;48.00;;;;;;4974235;28;20481;-69
2021/03/30 01:45:09;;;;;;;6.33;2.33;;;20.20;48.10;;;;;;4977601;28;20476;-70
2021/03/30 01:47:36;;;;;;;2.10;1.53;;;20.20;48.20;;;;;;4975164;28;20971;-70
2021/03/30 01:50:03;;;;;;;3.27;2.10;;;20.20;48.00;;;;;;4974754;28;21105;-70
2021/03/30 01:52:29;;;;;;;3.00;1.90;;;20.20;48.00;;;;;;4970877;28;20497;-70
2021/03/30 01:54:55;;;;;;;2.97;1.90;;;20.30;48.00;;;;;;4977688;28;21024;-70
2021/03/30 01:57:28;;;;;;;2.23;1.77;;;20.30;47.90;;;;;;4974959;28;20485;-69
2021/03/30 01:59:54;;;;;;;2.10;2.00;;;20.30;47.90;;;;;;4974632;28;21422;-70
2021/03/30 02:02:21;;;;;;;2.40;2.13;;;20.30;48.60;;;;;;4970874;28;20501;-70
2021/03/30 02:04:48;;;;;;;4.23;1.73;;;20.30;47.80;;;;;;4976831;28;20520;-69
2021/03/30 02:07:15;;;;;;;7.20;2.50;;;20.30;47.90;;;;;;4973598;28;20485;-70
2021/03/30 02:09:43;;;;;;;3.77;2.00;;;20.30;47.90;;;;;;4976156;28;20482;-70
2021/03/30 02:12:12;;;;;;;3.60;1.60;;;20.30;47.80;;;;;;4935115;28;20922;-70
2021/03/30 02:14:38;;;;;;;9.47;2.10;;;20.30;47.80;;;;;;4969612;28;20494;-70
2021/03/30 02:17:07;;;;;;;1.53;1.43;;;20.30;47.70;;;;;;4976983;28;20472;-69
2021/03/30 02:19:35;;;;;;;5.53;1.90;;;20.30;47.50;;;;;;4975051;28;20485;-69
2021/03/30 02:22:07;;;;;;;2.23;2.03;;;20.30;47.50;;;;;;4976975;28;20492;-70
2021/03/30 02:24:34;;;;;;;5.23;2.17;;;20.30;47.40;;;;;;4972235;28;20550;-69
2021/03/30 02:27:00;;;;;;;2.47;2.10;;;20.30;47.50;;;;;;4975114;28;20480;-70
2021/03/30 02:29:28;;;;;;;5.73;2.63;;;20.30;47.60;;;;;;4974918;28;20497;-70
2021/03/30 02:31:54;;;;;;;3.00;1.87;;;20.30;47.50;;;;;;4972460;28;20490;-70
2021/03/30 02:34:24;;;;;;;2.60;2.40;;;20.30;47.40;;;;;;4973801;28;20500;-70
2021/03/30 02:36:51;;;;;;;3.93;1.90;;;20.30;47.50;;;;;;4977306;28;20493;-70
2021/03/30 02:39:18;;;;;;;2.60;2.40;;;20.20;47.40;;;;;;4964424;28;21029;-70
2021/03/30 02:41:44;;;;;;;2.97;2.00;;;20.20;47.30;;;;;;4969792;28;20481;-70
2021/03/30 02:44:11;;;;;;;2.30;1.60;;;20.20;47.30;;;;;;4971407;28;20493;-70
2021/03/30 02:46:38;;;;;;;2.07;1.97;;;20.20;47.30;;;;;;4975303;28;20490;-69
2021/03/30 02:49:04;;;;;;;4.33;1.83;;;20.20;47.20;;;;;;4972350;28;20483;-69
2021/03/30 02:51:31;;;;;;;4.30;2.13;;;20.20;47.10;;;;;;4975588;28;20497;-70
2021/03/30 02:53:57;;;;;;;5.87;1.90;;;20.20;47.30;;;;;;4972744;28;20901;-71
2021/03/30 02:56:24;;;;;;;3.63;2.30;;;20.10;48.10;;;;;;4974345;28;20875;-71
2021/03/30 02:58:51;;;;;;;3.07;1.37;;;20.10;47.60;;;;;;4982139;28;20512;-71
2021/03/30 03:01:17;;;;;;;2.97;1.80;;;20.10;47.60;;;;;;4975840;28;20493;-71
2021/03/30 03:03:43;;;;;;;4.17;2.30;;;20.10;47.60;;;;;;4977392;28;20902;-71
2021/03/30 03:06:10;;;;;;;2.03;1.77;;;20.10;47.70;;;;;;4978550;28;20489;-69
2021/03/30 03:08:36;;;;;;;2.30;1.70;;;20.10;47.50;;;;;;4978515;28;20552;-68
2021/03/30 03:11:02;;;;;;;1.77;1.67;;;20.10;47.30;;;;;;4978920;28;20898;-69
2021/03/30 03:13:29;;;;;;;3.93;1.80;;;20.20;47.10;;;;;;4971616;28;21057;-70
2021/03/30 03:15:55;;;;;;;5.33;2.40;;;20.20;47.00;;;;;;4977349;28;20486;-70
2021/03/30 03:18:21;;;;;;;6.00;1.90;;;20.20;46.90;;;;;;4976336;28;20909;-70
2021/03/30 03:20:48;;;;;;;2.47;1.87;;;20.20;46.80;;;;;;4969991;28;21041;-69
2021/03/30 03:23:14;;;;;;;5.77;2.27;;;20.30;46.90;;;;;;4958032;28;20500;-70
2021/03/30 03:25:40;;;;;;;2.70;1.80;;;20.30;46.80;;;;;;4975858;28;20901;-70
2021/03/30 03:28:06;;;;;;;2.03;1.60;;;20.30;46.50;;;;;;4979313;28;20500;-69
2021/03/30 03:30:33;;;;;;;7.20;1.97;;;20.40;46.30;;;;;;4976329;28;20517;-69
2021/03/30 03:33:06;;;;;;;2.83;1.73;;;20.40;46.40;;;;;;4975619;28;20598;-69
2021/03/30 03:35:32;;;;;;;2.97;2.77;;;20.40;46.10;;;;;;4977654;28;21525;-69
2021/03/30 03:38:00;;;;;;;2.43;1.87;;;20.40;46.10;;;;;;4979776;28;20547;-70
2021/03/30 03:40:26;;;;;;;4.70;2.00;;;20.50;46.90;;;;;;4977271;28;20501;-69
2021/03/30 03:42:52;;;;;;;6.30;1.73;;;20.50;46.00;;;;;;4972272;28;20473;-69
2021/03/30 03:45:18;;;;;;;1.70;1.60;;;20.50;46.00;;;;;;4973111;28;20571;-70
2021/03/30 03:47:45;;;;;;;2.60;1.60;;;20.50;46.00;;;;;;4976567;28;20510;-70
2021/03/30 03:50:12;;;;;;;1.87;1.73;;;20.50;46.10;;;;;;4978069;28;20520;-70
2021/03/30 03:52:41;;;;;;;1.60;1.50;;;20.50;46.20;;;;;;4978160;28;20470;-70
2021/03/30 03:55:08;;;;;;;2.63;2.30;;;20.50;46.20;;;;;;4975656;28;20497;-70
2021/03/30 03:57:35;;;;;;;2.53;1.87;;;20.50;46.10;;;;;;4978401;28;20863;-69
2021/03/30 04:00:03;;;;;;;2.87;1.83;;;20.50;46.00;;;;;;4978691;28;20568;-70
2021/03/30 04:02:33;;;;;;;3.10;1.77;;;20.50;46.00;;;;;;4972536;28;20580;-69
2021/03/30 04:05:02;;;;;;;2.30;2.10;;;20.50;46.10;;;;;;4976961;28;20489;-69
2021/03/30 04:07:30;;;;;;;2.60;2.07;;;20.40;46.00;;;;;;4974631;28;20490;-70
2021/03/30 04:09:57;;;;;;;4.47;2.57;;;20.40;46.00;;;;;;4979083;28;20497;-70
2021/03/30 04:12:25;;;;;;;5.40;2.87;;;20.40;46.00;;;;;;4962477;28;20898;-70
2021/03/30 04:14:51;;;;;;;3.83;1.73;;;20.40;46.10;;;;;;4963831;28;21230;-70
2021/03/30 04:17:17;;;;;;;4.27;1.87;;;20.40;46.00;;;;;;4975396;28;20493;-70
2021/03/30 04:19:45;;;;;;;2.20;1.90;;;20.50;46.00;;;;;;4978464;28;20552;-71
2021/03/30 04:22:13;;;;;;;4.80;2.43;;;20.50;45.90;;;;;;4978453;28;21040;-72
2021/03/30 04:24:39;;;;;;;2.37;2.00;;;20.50;45.80;;;;;;4975649;28;20474;-71
2021/03/30 04:27:08;;;;;;;2.57;1.67;;;20.50;45.70;;;;;;4978099;28;20468;-71
2021/03/30 04:29:34;;;;;;;7.50;2.00;;;20.50;45.70;;;;;;4976603;28;20473;-71
2021/03/30 04:32:00;;;;;;;4.93;2.50;;;20.50;46.50;;;;;;4973358;28;20489;-71
2021/03/30 04:34:26;;;;;;;2.83;2.00;;;20.50;45.60;;;;;;4973459;28;20487;-70
2021/03/30 04:36:53;;;;;;;2.10;1.90;;;20.50;45.60;;;;;;4978906;28;20485;-71
2021/03/30 04:39:20;;;;;;;1.90;1.80;;;20.50;45.50;;;;;;4975740;28;20496;-70
2021/03/30 04:41:46;;;;;;;3.70;2.20;;;20.50;45.50;;;;;;4971899;28;20486;-71
2021/03/30 04:44:12;;;;;;;2.70;2.10;;;20.50;45.50;;;;;;4972297;28;20488;-70
2021/03/30 04:46:38;;;;;;;4.30;2.27;;;20.50;45.60;;;;;;4976709;28;21437;-71
2021/03/30 04:49:04;;;;;;;3.50;2.07;;;20.50;45.60;;;;;;4943488;28;21060;-68
2021/03/30 04:51:30;;;;;;;9.77;2.73;;;20.50;45.50;;;;;;4963894;28;20543;-70
2021/03/30 04:53:57;;;;;;;8.23;2.10;;;20.50;45.40;;;;;;4975677;28;21040;-70
2021/03/30 04:56:24;;;;;;;1.83;1.73;;;20.50;45.40;;;;;;4974009;28;20496;-69
2021/03/30 04:58:50;;;;;;;4.40;2.43;;;20.50;45.60;;;;;;4969091;28;20940;-70
2021/03/30 05:01:16;;;;;;;4.00;2.03;;;20.50;45.70;;;;;;4972247;28;20497;-69
2021/03/30 05:03:42;;;;;;;6.73;2.10;;;20.50;45.60;;;;;;4970612;28;21060;-70
2021/03/30 05:06:08;;;;;;;4.93;2.63;;;20.50;45.60;;;;;;4954619;28;20515;-70
2021/03/30 05:08:34;;;;;;;6.00;3.50;;;20.50;45.50;;;;;;4970327;28;20497;-69
2021/03/30 05:11:00;;;;;;;6.67;3.00;;;20.50;45.50;;;;;;4952005;28;20493;-70
2021/03/30 05:13:27;;;;;;;6.57;2.70;;;20.50;45.40;;;;;;4959683;28;20502;-70
2021/03/30 05:15:53;;;;;;;3.07;2.80;;;20.50;45.50;;;;;;4975551;28;20486;-69
2021/03/30 05:18:20;;;;;;;5.03;2.30;;;20.50;45.60;;;;;;4976182;28;20496;-70
2021/03/30 05:20:46;;;;;;;3.40;2.20;;;20.40;45.60;;;;;;4975883;28;20544;-70
2021/03/30 05:23:12;;;;;;;2.30;2.10;;;20.40;45.80;;;;;;4975650;28;20496;-70
2021/03/30 05:25:38;;;;;;;5.30;1.80;;;20.30;45.70;;;;;;4972610;28;20482;-70
2021/03/30 05:28:05;;;;;;;4.87;3.00;;;20.30;45.70;;;;;;4980047;28;20484;-69
2021/03/30 05:30:32;;;;;;;5.17;2.40;;;20.30;45.80;;;;;;4965911;28;20490;-69
2021/03/30 05:32:58;;;;;;;4.17;2.63;;;20.30;45.80;;;;;;4973861;28;20489;-70
2021/03/30 05:35:24;;;;;;;5.53;2.43;;;20.30;45.90;;;;;;4975128;28;20508;-70
2021/03/30 05:37:50;;;;;;;6.70;2.90;;;20.40;45.80;;;;;;4973276;28;21517;-69
2021/03/30 05:40:18;;;;;;;5.37;2.70;;;20.40;45.70;;;;;;4970789;28;20493;-70
2021/03/30 05:42:44;;;;;;;6.30;2.83;;;20.40;45.60;;;;;;4971620;28;20493;-70
2021/03/30 05:45:11;;;;;;;7.10;3.57;;;20.30;45.80;;;;;;4962225;28;20492;-70
2021/03/30 05:47:38;;;;;;;5.10;2.47;;;20.30;45.90;;;;;;4976284;28;20489;-70
2021/03/30 05:50:09;;;;;;;2.97;2.57;;;20.30;47.00;;;;;;4971547;28;20488;-69
2021/03/30 05:52:44;;;;;;;9.00;2.57;;;20.20;46.30;;;;;;4970087;28;20576;-70
2021/03/30 05:55:11;;;;;;;2.10;1.90;;;20.30;46.60;;;;;;4934934;28;20867;-70
2021/03/30 05:57:38;;;;;;;8.23;3.23;;;20.30;46.50;;;;;;4966428;28;20685;-69
2021/03/30 06:00:05;;;;;;;3.73;3.40;;;20.30;46.50;;;;;;4971072;28;20476;-70
2021/03/30 06:02:34;;;;;;;12.10;2.80;;;20.30;46.40;;;;;;4973283;28;21135;-70
2021/03/30 06:05:01;;;;;;;5.00;3.63;;;20.30;46.40;;;;;;4972780;28;20744;-70
2021/03/30 06:07:28;;;;;;;10.77;3.50;;;20.30;46.40;;;;;;4970246;28;21044;-70
2021/03/30 06:09:54;;;;;;;16.17;4.90;;;20.30;47.70;;;;;;4974938;28;20520;-75
2021/03/30 06:12:20;;;;;;;11.53;4.27;;;20.30;48.30;;;;;;4968182;28;21039;-70
2021/03/30 06:14:47;;;;;;;17.13;3.40;;;20.30;47.40;;;;;;4972904;28;20859;-71
2021/03/30 06:17:14;;;;;;;4.83;4.33;;;20.30;47.20;;;;;;4975419;28;20493;-71
2021/03/30 06:19:52;;;;;;;4.03;2.30;;;20.30;46.90;;;;;;4947934;28;20543;-70
2021/03/30 06:22:19;;;;;;;9.43;4.00;;;20.30;46.90;;;;;;4964060;28;20596;-70
2021/03/30 06:24:46;;;;;;;6.53;5.00;;;20.30;46.90;;;;;;4970615;28;21007;-71
2021/03/30 06:27:32;;;;;;;10.63;3.47;;;20.30;46.90;;;;;;4973736;28;20481;-71
2021/03/30 06:29:59;;;;;;;7.60;3.03;;;20.20;46.80;;;;;;4966318;28;20479;-71
2021/03/30 06:32:26;;;;;;;7.10;3.77;;;20.30;46.90;;;;;;4974668;28;20997;-70
2021/03/30 06:34:56;;;;;;;9.30;3.23;;;20.20;46.70;;;;;;4978759;28;20498;-70
2021/03/30 06:37:31;;;;;;;3.77;2.87;;;20.20;46.80;;;;;;4974852;28;20489;-70
2021/03/30 06:39:58;;;;;;;9.97;3.23;;;20.20;46.80;;;;;;4978627;28;20504;-70
2021/03/30 06:42:35;;;;;;;4.17;3.13;;;20.20;46.80;;;;;;4975215;28;21059;-71
2021/03/30 06:45:01;;;;;;;8.63;2.63;;;20.20;46.80;;;;;;4977234;28;21542;-71
2021/03/30 06:47:27;;;;;;;3.70;2.50;;;20.20;46.80;;;;;;4977594;28;20493;-70
2021/03/30 06:49:54;;;;;;;3.77;3.43;;;20.20;46.80;;;;;;4982415;28;20496;-69
2021/03/30 06:52:21;;;;;;;4.57;2.80;;;20.20;46.80;;;;;;4969047;28;20951;-71
2021/03/30 06:54:55;;;;;;;2.97;2.77;;;20.20;46.80;;;;;;4977096;28;20889;-71
2021/03/30 06:57:32;;;;;;;3.37;2.77;;;20.20;46.80;;;;;;4977423;28;20490;-71
2021/03/30 06:59:58;;;;;;;7.30;3.30;;;20.20;46.80;;;;;;4979713;28;20531;-71
2021/03/30 07:02:28;;;;;;;3.93;2.40;;;20.20;46.80;;;;;;4974276;28;20481;-71
2021/03/30 07:04:55;;;;;;;7.53;3.27;;;20.20;46.80;;;;;;4978366;28;21072;-71
2021/03/30 07:07:21;;;;;;;3.20;2.90;;;20.20;46.90;;;;;;4979006;28;20501;-71
2021/03/30 07:09:48;;;;;;;3.50;2.23;;;20.20;46.80;;;;;;4980300;28;20489;-71
2021/03/30 07:12:15;;;;;;;10.43;3.53;;;20.10;46.70;;;;;;4969735;28;20866;-70
2021/03/30 07:14:41;;;;;;;4.30;2.73;;;20.10;46.70;;;;;;4934752;28;20598;-71
2021/03/30 07:17:07;;;;;;;7.53;2.50;;;20.10;46.80;;;;;;4954070;28;20975;-71
2021/03/30 07:19:33;;;;;;;3.03;2.70;;;20.10;46.80;;;;;;4970504;28;21665;-70
2021/03/30 07:22:02;;;;;;;3.33;2.57;;;20.10;46.90;;;;;;4979565;28;21625;-71
2021/03/30 07:24:32;;;;;;;3.70;2.40;;;20.10;46.80;;;;;;5002528;28;20484;-72
2021/03/30 07:27:01;;;;;;;3.23;2.27;;;20.10;47.00;;;;;;5010925;28;20480;-72
2021/03/30 07:29:30;;;;;;;2.80;2.10;;;20.10;47.10;;;;;;4981140;28;20497;-71
2021/03/30 07:32:00;;;;;;;5.43;2.53;;;20.00;46.90;;;;;;4973134;28;20504;-71
2021/03/30 07:34:29;;;;;;;3.87;2.40;;;20.00;47.10;;;;;;4980460;28;20486;-71
2021/03/30 07:36:59;;;;;;;5.03;2.90;;;20.10;47.30;;;;;;4981155;28;21538;-71
2021/03/30 07:39:25;;;;;;;3.80;3.50;;;20.10;47.20;;;;;;4979243;28;21024;-72
2021/03/30 07:41:51;;;;;;;3.77;3.40;;;20.10;47.00;;;;;;4981504;28;21000;-72
2021/03/30 07:44:17;;;;;;;8.07;3.43;;;20.10;48.50;;;;;;4975438;28;21077;-72
2021/03/30 07:46:44;;;;;;;9.80;4.23;;;20.10;48.70;;;;;;4993306;28;20829;-77
2021/03/30 07:49:11;;;;;;;19.97;8.67;;;20.10;55.20;;;;;;4961627;28;21694;-77
2021/03/30 07:51:39;;;;;;;14.40;7.60;;;20.10;73.10;;;;;;4963723;28;21077;-76
2021/03/30 07:54:10;;;;;;;21.80;10.20;;;20.50;88.70;;;;;;4974789;28;21142;-77
2021/03/30 07:56:53;;;;;;;18.97;8.90;;;20.90;93.00;;;;;;4964748;28;20482;-76
2021/03/30 07:59:48;;;;;;;27.03;10.23;;;21.40;97.80;;;;;;4952475;28;20490;-77
2021/03/30 08:02:33;;;;;;;18.90;10.10;;;21.60;99.40;;;;;;4945079;28;20477;-77
2021/03/30 08:05:01;;;;;;;16.23;10.77;;;21.90;99.90;;;;;;4980099;28;20508;-76
2021/03/30 08:07:47;;;;;;;25.77;9.10;;;22.20;99.90;;;;;;4976591;28;20501;-76
2021/03/30 08:10:21;;;;;;;23.67;9.70;;;22.40;99.90;;;;;;4969640;28;20492;-76
2021/03/30 08:12:47;;;;;;;15.83;9.43;;;22.60;99.90;;;;;;4969496;28;20496;-77
2021/03/30 08:15:41;;;;;;;22.73;7.73;;;22.70;99.90;;;;;;4975999;28;20512;-77
2021/03/30 08:18:08;;;;;;;15.73;8.37;;;22.50;90.60;;;;;;4975364;28;20479;-77
2021/03/30 08:20:55;;;;;;;31.70;9.30;;;22.20;91.50;;;;;;4976298;28;20531;-77
2021/03/30 08:23:21;;;;;;;29.57;9.07;;;22.40;97.30;;;;;;4973752;28;20485;-76
2021/03/30 08:25:49;;;;;;;20.07;8.83;;;22.70;95.20;;;;;;4975185;28;21127;-76
2021/03/30 08:28:54;;;;;;;28.63;7.90;;;22.80;88.20;;;;;;4979693;28;20481;-77
2021/03/30 08:31:22;;;;;;;30.40;10.30;;;22.40;80.40;;;;;;4977379;28;20488;-76
2021/03/30 08:33:50;;;;;;;19.70;7.93;;;22.40;88.50;;;;;;4978318;28;20489;-77
2021/03/30 08:36:17;;;;;;;27.40;8.03;;;22.70;86.30;;;;;;4975726;28;20942;-77
2021/03/30 08:38:46;;;;;;;23.70;8.37;;;22.60;72.00;;;;;;4978269;28;20477;-77
2021/03/30 08:41:12;;;;;;;17.00;9.00;;;22.30;68.10;;;;;;4948627;28;20992;-76
2021/03/30 08:43:38;;;;;;;17.10;7.80;;;22.30;72.30;;;;;;4959594;28;20486;-75
2021/03/30 08:46:08;;;;;;;20.77;6.87;;;22.60;65.50;;;;;;4977189;28;20473;-77
2021/03/30 08:48:36;;;;;;;13.33;6.50;;;22.60;58.60;;;;;;4965347;28;20464;-77
2021/03/30 08:51:04;;;;;;;9.67;5.53;;;22.50;57.30;;;;;;4978459;28;20546;-76
2021/03/30 08:53:30;;;;;;;18.07;5.67;;;22.30;56.40;;;;;;4973495;28;20486;-77
2021/03/30 08:55:58;;;;;;;11.13;5.63;;;21.90;54.90;;;;;;4949259;28;20484;-76
2021/03/30 08:58:25;;;;;;;12.03;6.20;;;21.40;55.20;;;;;;4960333;28;20498;-77
2021/03/30 09:00:53;;;;;;;9.40;5.87;;;21.00;56.00;;;;;;4962443;28;20922;-77
2021/03/30 09:03:24;;;;;;;16.57;4.93;;;20.60;56.40;;;;;;4974817;28;20489;-78
2021/03/30 09:05:50;;;;;;;12.33;6.37;;;20.50;55.80;;;;;;4978187;28;20478;-77
2021/03/30 09:08:34;;;;;;;11.13;5.07;;;20.30;56.40;;;;;;4974832;28;20536;-77
2021/03/30 09:11:14;;;;;;;8.47;4.53;;;20.20;56.40;;;;;;4977523;28;20509;-76
2021/03/30 09:13:40;;;;;;;5.50;3.70;;;20.30;57.20;;;;;;4970342;28;20486;-77
2021/03/30 09:16:07;;;;;;;4.63;2.67;;;20.40;56.80;;;;;;4977807;28;20864;-77
2021/03/30 09:18:34;;;;;;;9.90;3.37;;;20.50;56.80;;;;;;4977129;28;20555;-76
2021/03/30 09:21:07;;;;;;;4.27;2.53;;;20.50;55.60;;;;;;4979276;28;20488;-77
2021/03/30 09:23:34;;;;;;;8.40;3.33;;;20.60;55.70;;;;;;4974374;28;20486;-77
2021/03/30 09:26:01;;;;;;;5.67;2.97;;;20.60;55.70;;;;;;4956297;28;21316;-76
2021/03/30 09:28:27;;;;;;;5.63;2.70;;;20.70;55.70;;;;;;4960617;28;20548;-76
2021/03/30 09:30:54;;;;;;;9.33;5.43;;;20.70;55.70;;;;;;4964813;28;20508;-77
2021/03/30 09:33:20;;;;;;;10.43;5.63;;;20.70;55.70;;;;;;4959986;28;20490;-76
2021/03/30 09:35:46;;;;;;;9.40;5.30;;;20.60;55.70;;;;;;4963616;28;21019;-77
2021/03/30 09:38:12;;;;;;;6.07;3.63;;;20.60;55.70;;;;;;4967669;28;21107;-77
2021/03/30 09:40:41;;;;;;;6.47;3.20;;;20.60;55.70;;;;;;4975391;28;20486;-77
2021/03/30 09:43:08;;;;;;;3.33;3.03;;;20.60;55.70;;;;;;4969959;28;20488;-77
2021/03/30 09:45:35;;;;;;;6.07;2.90;;;20.60;55.70;;;;;;4973862;28;20481;-77
2021/03/30 09:48:03;;;;;;;6.07;3.00;;;20.60;55.70;;;;;;4967456;28;20556;-76
2021/03/30 09:50:29;;;;;;;8.33;2.73;;;20.60;55.70;;;;;;4973501;28;21029;-77
2021/03/30 09:53:02;;;;;;;11.63;5.13;;;20.60;55.70;;;;;;4977529;28;20493;-77
2021/03/30 09:55:29;;;;;;;30.37;3.63;;;20.60;56.80;;;;;;4973063;28;20506;-78
2021/03/30 09:58:00;;;;;;;9.37;3.80;;;20.70;56.60;;;;;;4980019;28;20517;-78
2021/03/30 10:00:26;;;;;;;8.60;2.93;;;20.70;56.10;;;;;;4965256;28;20585;-77
2021/03/30 10:02:52;;;;;;;10.13;2.90;;;20.60;55.70;;;;;;4967731;28;20500;-77
2021/03/30 10:05:19;;;;;;;11.27;3.37;;;20.60;56.20;;;;;;4966337;28;20592;-79
2021/03/30 10:07:45;;;;;;;7.20;3.20;;;20.60;55.70;;;;;;4978821;28;20493;-79
2021/03/30 10:10:12;;;;;;;9.97;3.17;;;20.60;55.70;;;;;;4980035;28;20491;-78
2021/03/30 10:12:47;;;;;;;12.60;3.10;;;20.50;55.60;;;;;;4950012;28;20482;-77
2021/03/30 10:15:15;;;;;;;8.97;3.20;;;20.50;55.60;;;;;;4972430;28;20545;-79
2021/03/30 10:17:41;;;;;;;4.10;2.47;;;20.50;55.60;;;;;;4980072;28;20974;-78
2021/03/30 10:20:11;;;;;;;5.50;2.60;;;20.50;55.60;;;;;;4971280;28;21008;-78
2021/03/30 10:22:37;;;;;;;4.57;2.20;;;20.50;55.60;;;;;;4974575;28;20482;-78
2021/03/30 10:25:11;;;;;;;5.40;2.77;;;20.50;55.60;;;;;;4974041;28;20481;-78
2021/03/30 10:27:37;;;;;;;3.47;2.73;;;20.60;55.70;;;;;;4953947;28;20489;-78
2021/03/30 10:30:05;;;;;;;4.03;2.77;;;20.60;55.70;;;;;;4978053;28;20477;-78
2021/03/30 10:32:43;;;;;;;4.93;2.10;;;20.60;55.70;;;;;;4975524;28;20486;-78
2021/03/30 10:35:10;;;;;;;2.13;2.03;;;20.60;55.70;;;;;;4977798;28;20476;-78
2021/03/30 10:37:37;;;;;;;3.83;2.67;;;20.60;55.70;;;;;;4979358;28;20485;-78
2021/03/30 10:40:04;;;;;;;4.57;2.53;;;20.60;55.70;;;;;;4975761;28;20480;-78
2021/03/30 10:42:33;;;;;;;9.17;3.27;;;20.60;55.70;;;;;;4972543;28;20554;-79
2021/03/30 10:45:01;;;;;;;1.93;1.83;;;20.60;55.70;;;;;;4974840;28;20488;-80
2021/03/30 10:47:29;;;;;;;5.77;2.53;;;20.60;55.70;;;;;;4978159;28;20501;-79
2021/03/30 10:49:56;;;;;;;4.23;2.50;;;20.50;55.60;;;;;;4979976;28;20489;-78
2021/03/30 10:52:25;;;;;;;6.53;2.77;;;20.50;55.60;;;;;;4977604;28;20486;-80
2021/03/30 10:54:53;;;;;;;3.23;2.93;;;20.50;55.60;;;;;;4978098;28;20483;-79
2021/03/30 10:57:20;;;;;;;3.03;2.53;;;20.50;55.50;;;;;;4976876;28;20915;-79
2021/03/30 10:59:46;;;;;;;3.00;2.70;;;20.50;55.60;;;;;;4980454;28;20496;-79
2021/03/30 11:02:13;;;;;;;2.60;2.33;;;20.40;55.50;;;;;;4977732;28;20516;-79
2021/03/30 11:04:39;;;;;;;4.07;2.40;;;20.40;55.50;;;;;;4961502;28;20486;-78
2021/03/30 11:07:06;;;;;;;4.37;2.87;;;20.40;55.50;;;;;;4979273;28;22118;-78
2021/03/30 11:09:32;;;;;;;2.27;2.03;;;20.40;55.60;;;;;;4974513;28;20497;-78
2021/03/30 11:11:59;;;;;;;2.77;2.57;;;20.40;55.50;;;;;;4964481;28;20490;-77
2021/03/30 11:14:25;;;;;;;4.00;2.97;;;20.40;55.50;;;;;;4968917;28;20547;-78
2021/03/30 11:16:51;;;;;;;2.27;2.10;;;20.50;55.60;;;;;;4969653;28;20485;-78
2021/03/30 11:19:17;;;;;;;2.40;2.20;;;20.50;55.60;;;;;;4979574;28;20497;-77
2021/03/30 11:21:44;;;;;;;6.60;2.60;;;20.50;55.60;;;;;;4978674;28;20993;-78
2021/03/30 11:24:14;;;;;;;4.00;2.23;;;20.40;55.50;;;;;;4978071;28;20485;-78
2021/03/30 11:26:43;;;;;;;4.70;2.17;;;20.40;55.50;;;;;;4978942;28;20497;-78
2021/03/30 11:29:12;;;;;;;1.90;1.80;;;20.30;55.40;;;;;;4981412;28;20473;-77
2021/03/30 11:34:37;;;;;;;5.10;2.23;;;20.30;55.40;;;;;;4919957;29;20509;-78
2021/03/30 11:37:12;;;;;;;3.00;2.50;;;20.30;55.40;;;;;;4965674;28;20472;-77
2021/03/30 11:39:39;;;;;;;2.83;2.30;;;20.30;55.40;;;;;;4979098;28;20568;-77
2021/03/30 11:42:06;;;;;;;3.10;2.80;;;20.30;55.50;;;;;;4975978;28;20493;-77
2021/03/30 11:44:32;;;;;;;4.30;2.50;;;20.30;55.40;;;;;;4971738;28;20544;-77
2021/03/30 11:46:59;;;;;;;2.10;1.90;;;20.30;55.40;;;;;;4978052;28;20501;-77
2021/03/30 11:49:25;;;;;;;8.30;2.80;;;20.30;55.40;;;;;;4980642;28;21132;-77
2021/03/30 11:51:52;;;;;;;1.77;1.67;;;20.30;55.30;;;;;;4962588;28;20505;-77
2021/03/30 11:54:18;;;;;;;2.50;2.03;;;20.30;55.40;;;;;;4965060;28;20855;-77
2021/03/30 11:56:45;;;;;;;1.90;1.80;;;20.30;55.50;;;;;;4979302;28;20493;-78
2021/03/30 11:59:11;;;;;;;2.17;2.00;;;20.30;55.40;;;;;;4980097;28;20488;-78
2021/03/30 12:01:37;;;;;;;4.30;1.97;;;20.30;55.10;;;;;;4974908;28;20482;-77
2021/03/30 12:04:03;;;;;;;1.50;1.40;;;20.30;55.00;;;;;;4978066;28;21027;-77
2021/03/30 12:06:29;;;;;;;3.47;1.60;;;20.30;54.60;;;;;;4978056;28;20874;-78
2021/03/30 12:08:56;;;;;;;1.90;1.67;;;20.30;54.60;;;;;;4981162;28;21078;-77
2021/03/30 12:11:22;;;;;;;2.13;1.63;;;20.30;54.30;;;;;;4975495;28;20867;-78
2021/03/30 12:13:49;;;;;;;1.30;1.27;;;20.40;54.30;;;;;;4972089;28;20482;-77
2021/03/30 12:16:15;;;;;;;5.33;2.67;;;20.30;54.30;;;;;;4969316;28;20489;-78
2021/03/30 12:18:41;;;;;;;2.70;1.60;;;20.40;54.20;;;;;;4978984;28;20477;-78
2021/03/30 12:21:07;;;;;;;2.17;1.97;;;20.30;54.20;;;;;;4980466;28;20485;-77
2021/03/30 12:23:33;;;;;;;5.07;1.50;;;20.30;54.30;;;;;;4966112;28;20490;-77
2021/03/30 12:25:59;;;;;;;2.20;1.80;;;20.30;54.40;;;;;;4976159;28;20484;-77
2021/03/30 12:28:26;;;;;;;1.50;1.40;;;20.30;54.30;;;;;;4977038;28;20569;-78
2021/03/30 12:30:53;;;;;;;1.87;1.40;;;20.30;54.10;;;;;;4969511;28;20501;-78
2021/03/30 12:33:19;;;;;;;1.63;1.53;;;20.40;53.90;;;;;;4977450;28;20486;-77
2021/03/30 12:35:45;;;;;;;4.17;1.70;;;20.40;53.80;;;;;;4978363;28;20485;-78
2021/03/30 12:38:11;;;;;;;1.30;1.30;;;20.40;53.70;;;;;;4976160;28;20472;-77
2021/03/30 12:40:37;;;;;;;1.53;1.23;;;20.40;53.70;;;;;;4977832;28;21026;-77
2021/03/30 12:43:04;;;;;;;3.03;1.63;;;20.40;53.80;;;;;;4962734;28;20832;-77
2021/03/30 12:45:33;;;;;;;2.10;1.43;;;20.40;53.70;;;;;;4975191;28;20573;-78
2021/03/30 12:48:00;;;;;;;1.80;1.70;;;20.40;53.70;;;;;;4980497;28;20484;-78
2021/03/30 12:50:27;;;;;;;1.33;1.23;;;20.40;53.60;;;;;;4977017;28;20493;-78
2021/03/30 12:52:53;;;;;;;1.53;1.53;;;20.40;53.60;;;;;;4977592;28;21043;-77